Athensville, Illinois
Current Conditions -  °F | °C
As of 2:55 PM on Sunday 23 Nov 2014 (Local Time) from KIJX Reporting Station
Moderate Rain Moderate Rain  
Wind Chill: 54°   Ceiling: 600
Heat Index: 54°   Visibility: 5mi
Dew Point: 52°   Wind: 9mph
Humidity: 93%   Direction: 140°SE
Pressure: 29.39"   Gusts: NA
Location:  39.491°N, 90.2996°W
Report Text: KIJX 232055Z AUTO 14008KT 5SM RA OVC006 12/11 A2939 RMK AO2 P0009 60015 T01230112
Loading
Personal Weather Stations






























Interactive Weather Map New forecast layout! Learn more

10-Day Weather Forecast

Advertisements
Track Severe Weather on mobile